Time;durP1;ratioP1;P1;durP2;ratioP2;P2;SDS_P1;SDS_P2;PMS_P1;PMS_P2;Temp;Humidity;BMP_temperature;BMP_pressure;BME280_temperature;BME280_humidity;BME280_pressure;Samples;Min_cycle;Max_cycle;Signal;HPM_P1;HPM_P2
2024/01/24 00:00:38;;;;;;;2.65;0.60;;;;;;;;;;5021131;28;20054;-85
2024/01/24 00:03:06;;;;;;;2.83;0.70;;;;;;;;;;5029845;28;20096;-84
2024/01/24 00:05:33;;;;;;;2.08;0.70;;;;;;;;;;5024452;28;20050;-90
2024/01/24 00:08:00;;;;;;;2.80;1.20;;;;;;;;;;5024435;28;20042;-88
2024/01/24 00:10:28;;;;;;;1.17;0.57;;;;;;;;;;5021081;28;20054;-85
2024/01/24 00:12:56;;;;;;;3.80;0.50;;;;;;;;;;5020867;28;20045;-92
2024/01/24 00:15:23;;;;;;;1.45;0.60;;;;;;;;;;5032102;28;20057;-87
2024/01/24 00:17:50;;;;;;;1.05;0.60;;;;;;;;;;5025656;28;20049;-88
2024/01/24 00:20:18;;;;;;;1.15;0.50;;;;;;;;;;5029183;28;20076;-84
2024/01/24 00:22:45;;;;;;;1.77;0.50;;;;;;;;;;5025323;28;20495;-87
2024/01/24 00:25:12;;;;;;;2.08;0.55;;;;;;;;;;5030040;28;20251;-87
2024/01/24 00:27:40;;;;;;;0.95;0.38;;;;;;;;;;5032531;28;20403;-87
2024/01/24 00:30:07;;;;;;;2.15;0.65;;;;;;;;;;5023352;28;20504;-86
2024/01/24 00:32:34;;;;;;;0.60;0.35;;;;;;;;;;5020837;28;20493;-87
2024/01/24 00:35:02;;;;;;;0.80;0.60;;;;;;;;;;5020759;28;20080;-88
2024/01/24 00:37:29;;;;;;;1.13;0.68;;;;;;;;;;5024006;28;20041;-88
2024/01/24 00:39:56;;;;;;;0.70;0.47;;;;;;;;;;5024368;28;20057;-84
2024/01/24 00:42:23;;;;;;;0.88;0.60;;;;;;;;;;5023901;28;20413;-86
2024/01/24 00:44:51;;;;;;;1.13;0.40;;;;;;;;;;5023689;28;20429;-85
2024/01/24 00:47:19;;;;;;;2.13;0.60;;;;;;;;;;5022665;28;20508;-86
2024/01/24 00:49:47;;;;;;;5.22;0.95;;;;;;;;;;5026975;28;20104;-86
2024/01/24 00:52:14;;;;;;;2.47;0.88;;;;;;;;;;5023310;28;20491;-86
2024/01/24 00:54:41;;;;;;;3.13;0.90;;;;;;;;;;5024360;28;20064;-88
2024/01/24 00:57:09;;;;;;;3.90;0.85;;;;;;;;;;5027668;28;20076;-89
2024/01/24 00:59:36;;;;;;;1.05;0.80;;;;;;;;;;5028434;28;20132;-87
2024/01/24 01:02:03;;;;;;;4.93;1.10;;;;;;;;;;5027411;28;20425;-89
2024/01/24 01:04:30;;;;;;;4.80;1.10;;;;;;;;;;5024772;28;20053;-92
2024/01/24 01:06:58;;;;;;;2.28;0.90;;;;;;;;;;5024364;28;20056;-85
2024/01/24 01:09:25;;;;;;;10.20;1.75;;;;;;;;;;5027879;28;20061;-84
2024/01/24 01:11:52;;;;;;;4.22;1.20;;;;;;;;;;5029137;28;20084;-86
2024/01/24 01:14:20;;;;;;;4.72;1.38;;;;;;;;;;5026636;28;20083;-88
2024/01/24 01:16:47;;;;;;;3.85;1.10;;;;;;;;;;5021595;28;20050;-87
2024/01/24 01:19:14;;;;;;;6.75;1.45;;;;;;;;;;5025947;28;20073;-87
2024/01/24 01:21:41;;;;;;;3.88;1.45;;;;;;;;;;5027829;28;20053;-86
2024/01/24 01:24:09;;;;;;;4.18;1.15;;;;;;;;;;5027347;28;20054;-89
2024/01/24 01:26:37;;;;;;;4.18;1.48;;;;;;;;;;5035972;28;20046;-86
2024/01/24 01:29:04;;;;;;;6.35;1.45;;;;;;;;;;5027161;28;20057;-87
2024/01/24 01:31:31;;;;;;;5.40;1.00;;;;;;;;;;5024082;28;20092;-86
2024/01/24 01:34:00;;;;;;;2.38;0.82;;;;;;;;;;5029816;28;20487;-87
2024/01/24 01:36:28;;;;;;;2.40;0.80;;;;;;;;;;5038252;28;20620;-86
2024/01/24 01:38:55;;;;;;;3.35;1.05;;;;;;;;;;5031807;28;20557;-89
2024/01/24 01:41:22;;;;;;;3.33;1.10;;;;;;;;;;5035920;28;20426;-88
2024/01/24 01:43:49;;;;;;;1.58;0.80;;;;;;;;;;5027483;28;20050;-87
2024/01/24 01:46:21;;;;;;;4.35;0.82;;;;;;;;;;5024995;28;20543;-87
2024/01/24 01:48:50;;;;;;;2.35;0.90;;;;;;;;;;5023843;28;20053;-90
2024/01/24 01:51:19;;;;;;;2.28;0.75;;;;;;;;;;5027970;28;20065;-86
2024/01/24 01:53:47;;;;;;;2.03;0.70;;;;;;;;;;5027474;28;20081;-90
2024/01/24 01:56:16;;;;;;;2.40;0.60;;;;;;;;;;5026903;28;20057;-87
2024/01/24 01:58:44;;;;;;;3.35;0.80;;;;;;;;;;5027048;28;20057;-85
2024/01/24 02:01:11;;;;;;;3.70;0.80;;;;;;;;;;5025556;28;20061;-88
2024/01/24 02:03:38;;;;;;;1.92;0.80;;;;;;;;;;5023550;28;20057;-86
2024/01/24 02:06:07;;;;;;;4.22;1.13;;;;;;;;;;5023532;28;20102;-87
2024/01/24 02:08:35;;;;;;;2.40;0.63;;;;;;;;;;5026431;28;20060;-89
2024/01/24 02:11:03;;;;;;;3.25;1.08;;;;;;;;;;5026793;28;20092;-86
2024/01/24 02:13:31;;;;;;;1.63;0.80;;;;;;;;;;5026518;28;20049;-89
2024/01/24 02:16:05;;;;;;;2.25;0.77;;;;;;;;;;5026486;28;20502;-89
2024/01/24 02:18:32;;;;;;;;;;;;;;;;;;5023767;28;20116;-88
2024/01/24 02:21:00;;;;;;;1.60;0.63;;;;;;;;;;5023098;28;19922;-87
2024/01/24 02:23:27;;;;;;;2.65;0.55;;;;;;;;;;5026752;28;20108;-87
2024/01/24 02:25:55;;;;;;;2.97;0.60;;;;;;;;;;5025929;28;20095;-88
2024/01/24 02:28:22;;;;;;;2.15;0.88;;;;;;;;;;5023494;28;20077;-89
2024/01/24 02:30:49;;;;;;;1.15;0.45;;;;;;;;;;5023085;28;20107;-88
2024/01/24 02:33:16;;;;;;;0.88;0.40;;;;;;;;;;5025146;28;20097;-89
2024/01/24 02:35:44;;;;;;;0.75;0.47;;;;;;;;;;5026279;28;20126;-91
2024/01/24 02:38:11;;;;;;;0.98;0.63;;;;;;;;;;5024774;28;20107;-89
2024/01/24 02:40:38;;;;;;;0.50;0.40;;;;;;;;;;5019762;28;20050;-89
2024/01/24 02:43:05;;;;;;;0.50;0.50;;;;;;;;;;5026126;28;20053;-89
2024/01/24 02:45:33;;;;;;;1.00;0.47;;;;;;;;;;5026290;28;20046;-88
2024/01/24 02:48:00;;;;;;;1.92;0.40;;;;;;;;;;5031728;28;20053;-88
2024/01/24 02:50:27;;;;;;;1.65;0.50;;;;;;;;;;5030983;28;20057;-90
2024/01/24 02:52:55;;;;;;;0.20;0.20;;;;;;;;;;5025017;28;20050;-85
2024/01/24 02:55:22;;;;;;;0.50;0.40;;;;;;;;;;5025650;28;20057;-87
2024/01/24 02:57:49;;;;;;;0.40;0.30;;;;;;;;;;5025684;28;20478;-89
2024/01/24 03:00:17;;;;;;;0.90;0.50;;;;;;;;;;5025586;28;20049;-86
2024/01/24 03:02:44;;;;;;;1.75;0.47;;;;;;;;;;5027902;28;20490;-84
2024/01/24 03:05:11;;;;;;;2.60;0.63;;;;;;;;;;5024616;28;20057;-86
2024/01/24 03:07:40;;;;;;;2.97;0.57;;;;;;;;;;5025244;28;20103;-86
2024/01/24 03:10:08;;;;;;;0.95;0.40;;;;;;;;;;5025242;28;20065;-88
2024/01/24 03:12:35;;;;;;;0.70;0.40;;;;;;;;;;5026618;28;20050;-85
2024/01/24 03:15:03;;;;;;;0.47;0.40;;;;;;;;;;5024960;28;20486;-85
2024/01/24 03:17:30;;;;;;;2.28;0.57;;;;;;;;;;5033351;28;20397;-85
2024/01/24 03:19:58;;;;;;;1.40;0.45;;;;;;;;;;5033109;28;20128;-85
2024/01/24 03:22:25;;;;;;;1.80;0.40;;;;;;;;;;5025126;28;20119;-87
2024/01/24 03:24:52;;;;;;;1.02;0.40;;;;;;;;;;5024575;28;20049;-87
2024/01/24 03:27:20;;;;;;;1.20;0.38;;;;;;;;;;5025851;28;20046;-86
2024/01/24 03:29:48;;;;;;;2.13;0.60;;;;;;;;;;5024953;28;20045;-87
2024/01/24 03:32:18;;;;;;;2.63;0.50;;;;;;;;;;5024897;28;20053;-93
2024/01/24 03:34:52;;;;;;;1.45;0.63;;;;;;;;;;5025291;28;20107;-88
2024/01/24 03:37:19;;;;;;;0.85;0.70;;;;;;;;;;5022535;28;20045;-88
2024/01/24 03:39:46;;;;;;;2.42;0.47;;;;;;;;;;5021444;28;20050;-86
2024/01/24 03:42:14;;;;;;;0.63;0.40;;;;;;;;;;5023120;28;20099;-86
2024/01/24 03:44:41;;;;;;;1.17;0.50;;;;;;;;;;5024653;28;20482;-87
2024/01/24 03:47:08;;;;;;;0.82;0.40;;;;;;;;;;5023457;28;20049;-87
2024/01/24 03:49:36;;;;;;;0.98;0.40;;;;;;;;;;5021318;28;20045;-86
2024/01/24 03:52:04;;;;;;;0.93;0.60;;;;;;;;;;5021772;28;20081;-89
2024/01/24 03:54:31;;;;;;;1.65;0.63;;;;;;;;;;5025007;28;20057;-89
2024/01/24 03:56:59;;;;;;;1.17;0.40;;;;;;;;;;5032653;28;20050;-84
2024/01/24 03:59:26;;;;;;;1.25;0.55;;;;;;;;;;5024419;28;20092;-85
2024/01/24 04:01:53;;;;;;;1.27;0.50;;;;;;;;;;5031210;28;20081;-86
2024/01/24 04:04:21;;;;;;;3.25;0.55;;;;;;;;;;5027168;28;20057;-85
2024/01/24 04:06:48;;;;;;;1.38;0.55;;;;;;;;;;5025833;28;20137;-86
2024/01/24 04:09:16;;;;;;;0.80;0.40;;;;;;;;;;5032069;28;20137;-85
2024/01/24 04:11:43;;;;;;;1.40;0.50;;;;;;;;;;5025872;28;20076;-85
2024/01/24 04:14:10;;;;;;;2.70;0.60;;;;;;;;;;5022632;28;20569;-85
2024/01/24 04:16:39;;;;;;;0.68;0.35;;;;;;;;;;5026399;28;20054;-85
2024/01/24 04:19:07;;;;;;;1.27;0.95;;;;;;;;;;5025197;28;20046;-86
2024/01/24 04:21:40;;;;;;;1.52;0.40;;;;;;;;;;5032500;28;20057;-88
2024/01/24 04:24:07;;;;;;;4.10;1.10;;;;;;;;;;5024072;28;20045;-85
2024/01/24 04:26:35;;;;;;;2.72;0.60;;;;;;;;;;5023927;28;20053;-85
2024/01/24 04:29:02;;;;;;;0.50;0.40;;;;;;;;;;5023487;28;20052;-85
2024/01/24 04:31:29;;;;;;;1.75;0.80;;;;;;;;;;5021317;28;20465;-86
2024/01/24 04:33:56;;;;;;;2.15;0.70;;;;;;;;;;5021651;28;20104;-86
2024/01/24 04:36:24;;;;;;;1.17;0.60;;;;;;;;;;5023597;28;20049;-87
2024/01/24 04:38:51;;;;;;;2.00;0.43;;;;;;;;;;5025163;28;20136;-88
2024/01/24 04:41:19;;;;;;;1.50;0.50;;;;;;;;;;5021087;28;20057;-86
2024/01/24 04:43:48;;;;;;;3.60;0.73;;;;;;;;;;5021297;28;20049;-89
2024/01/24 04:46:16;;;;;;;0.93;0.43;;;;;;;;;;5022061;28;20076;-87
2024/01/24 04:48:43;;;;;;;1.38;0.43;;;;;;;;;;5023845;28;20057;-84
2024/01/24 04:51:11;;;;;;;1.85;0.60;;;;;;;;;;5021867;28;20064;-87
2024/01/24 04:53:39;;;;;;;2.33;0.75;;;;;;;;;;5020349;28;20124;-87
2024/01/24 04:56:07;;;;;;;1.80;0.68;;;;;;;;;;5020710;28;20486;-84
2024/01/24 04:58:35;;;;;;;2.00;0.50;;;;;;;;;;5024880;28;20469;-86
2024/01/24 05:01:03;;;;;;;0.50;0.50;;;;;;;;;;5023529;28;20456;-86
2024/01/24 05:03:30;;;;;;;3.38;0.60;;;;;;;;;;5021538;28;20081;-86
2024/01/24 05:05:58;;;;;;;0.90;0.70;;;;;;;;;;5019876;28;20060;-85
2024/01/24 05:08:36;;;;;;;3.03;2.15;;;;;;;;;;5021426;28;20410;-86
2024/01/24 05:11:04;;;;;;;2.15;1.73;;;;;;;;;;5020332;28;20046;-87
2024/01/24 05:13:31;;;;;;;2.28;2.17;;;;;;;;;;5031964;28;20053;-87
2024/01/24 05:15:59;;;;;;;1.92;0.75;;;;;;;;;;5026030;28;20107;-87
2024/01/24 05:18:26;;;;;;;1.40;0.63;;;;;;;;;;5021764;28;20079;-87
2024/01/24 05:20:54;;;;;;;3.30;0.68;;;;;;;;;;5021085;28;20060;-88
2024/01/24 05:23:21;;;;;;;1.95;0.68;;;;;;;;;;5022896;28;20064;-87
2024/01/24 05:25:49;;;;;;;1.65;0.70;;;;;;;;;;5025136;28;20103;-87
2024/01/24 05:28:16;;;;;;;1.63;0.75;;;;;;;;;;5028330;28;20050;-87
2024/01/24 05:30:43;;;;;;;2.88;0.50;;;;;;;;;;5020259;28;20053;-87
2024/01/24 05:33:11;;;;;;;3.92;0.60;;;;;;;;;;5021330;28;20073;-87
2024/01/24 05:35:38;;;;;;;1.27;0.57;;;;;;;;;;5023480;28;20596;-87
2024/01/24 05:38:06;;;;;;;0.68;0.50;;;;;;;;;;5023405;28;20050;-87
2024/01/24 05:40:33;;;;;;;4.63;0.60;;;;;;;;;;5023754;28;20057;-87
2024/01/24 05:43:02;;;;;;;0.73;0.50;;;;;;;;;;5026782;28;20080;-88
2024/01/24 05:45:30;;;;;;;2.20;0.40;;;;;;;;;;5027521;28;20123;-87
2024/01/24 05:47:57;;;;;;;0.70;0.50;;;;;;;;;;5026873;28;20057;-87
2024/01/24 05:50:25;;;;;;;2.83;0.50;;;;;;;;;;5023841;28;20499;-89
2024/01/24 05:52:52;;;;;;;1.77;0.60;;;;;;;;;;5022872;28;20112;-87
2024/01/24 05:55:19;;;;;;;2.60;0.50;;;;;;;;;;5026195;28;20124;-86
2024/01/24 05:57:46;;;;;;;3.03;0.50;;;;;;;;;;5030074;28;20085;-86
2024/01/24 06:00:14;;;;;;;1.63;0.60;;;;;;;;;;5023458;28;20071;-87
2024/01/24 06:02:43;;;;;;;1.13;0.65;;;;;;;;;;5029764;28;20054;-87
2024/01/24 06:05:11;;;;;;;1.80;0.40;;;;;;;;;;5024300;28;20085;-86
2024/01/24 06:07:39;;;;;;;0.70;0.50;;;;;;;;;;5026840;28;20134;-89
2024/01/24 06:10:07;;;;;;;0.43;0.30;;;;;;;;;;5027085;28;20049;-87
2024/01/24 06:12:34;;;;;;;1.63;0.32;;;;;;;;;;5023319;28;20136;-88
2024/01/24 06:15:02;;;;;;;1.85;0.50;;;;;;;;;;5024896;28;20054;-89
2024/01/24 06:17:29;;;;;;;0.25;0.25;;;;;;;;;;5026929;28;20053;-87
2024/01/24 06:20:00;;;;;;;0.93;0.32;;;;;;;;;;5026896;28;20050;-86
2024/01/24 06:22:27;;;;;;;1.60;0.50;;;;;;;;;;5023304;28;20054;-89
2024/01/24 06:24:57;;;;;;;1.40;0.30;;;;;;;;;;5023095;28;20045;-89
2024/01/24 06:27:24;;;;;;;0.63;0.30;;;;;;;;;;5026559;28;20060;-87
2024/01/24 06:29:51;;;;;;;0.52;0.30;;;;;;;;;;5028930;28;20053;-88
2024/01/24 06:32:39;;;;;;;0.35;0.20;;;;;;;;;;5028556;28;20060;-89
2024/01/24 06:35:08;;;;;;;0.52;0.50;;;;;;;;;;5025668;28;20059;-88
2024/01/24 06:37:37;;;;;;;0.20;0.20;;;;;;;;;;5023040;28;20054;-92
2024/01/24 06:40:05;;;;;;;0.90;0.45;;;;;;;;;;5023250;28;20111;-87
2024/01/24 06:42:33;;;;;;;1.00;0.50;;;;;;;;;;5026375;28;20077;-88
2024/01/24 06:45:00;;;;;;;0.77;0.25;;;;;;;;;;5025921;28;20064;-87
2024/01/24 06:47:27;;;;;;;1.05;0.30;;;;;;;;;;5022900;28;20552;-88
2024/01/24 06:49:54;;;;;;;0.40;0.40;;;;;;;;;;5029875;28;20042;-88
2024/01/24 06:52:22;;;;;;;0.35;0.30;;;;;;;;;;5022729;28;20074;-89
2024/01/24 06:54:49;;;;;;;0.82;0.10;;;;;;;;;;5022496;28;20069;-88
2024/01/24 06:57:16;;;;;;;1.27;0.30;;;;;;;;;;5024496;28;20053;-87
2024/01/24 06:59:44;;;;;;;1.00;0.20;;;;;;;;;;5025908;28;20045;-87
2024/01/24 07:02:13;;;;;;;1.52;0.32;;;;;;;;;;5024374;28;20382;-88
2024/01/24 07:04:40;;;;;;;0.50;0.30;;;;;;;;;;5022571;28;20460;-88
2024/01/24 07:07:08;;;;;;;0.20;0.20;;;;;;;;;;5022878;28;20057;-88
2024/01/24 07:09:36;;;;;;;2.15;0.60;;;;;;;;;;5029456;28;20133;-88
2024/01/24 07:12:04;;;;;;;1.70;0.68;;;;;;;;;;5022208;28;20057;-88
2024/01/24 07:14:31;;;;;;;0.43;0.10;;;;;;;;;;5025708;28;20559;-89
2024/01/24 07:16:59;;;;;;;1.17;0.10;;;;;;;;;;5025309;28;20041;-88
2024/01/24 07:19:26;;;;;;;0.10;0.10;;;;;;;;;;5025609;28;20088;-87
2024/01/24 07:21:53;;;;;;;0.10;0.10;;;;;;;;;;5026390;28;20080;-89
2024/01/24 07:24:21;;;;;;;1.90;1.30;;;;;;;;;;5022572;28;20079;-89
2024/01/24 07:26:48;;;;;;;2.20;1.10;;;;;;;;;;5021522;28;20065;-89
2024/01/24 07:29:15;;;;;;;0.63;0.40;;;;;;;;;;5030308;28;20049;-89
2024/01/24 07:31:43;;;;;;;0.32;0.30;;;;;;;;;;5027840;28;20076;-89
2024/01/24 07:34:11;;;;;;;0.30;0.20;;;;;;;;;;5025501;28;20049;-89
2024/01/24 07:36:39;;;;;;;0.75;0.10;;;;;;;;;;5019986;28;20108;-88
2024/01/24 07:39:06;;;;;;;0.25;0.20;;;;;;;;;;5022119;28;20486;-88
2024/01/24 07:41:33;;;;;;;0.13;0.13;;;;;;;;;;5025391;28;20168;-89
2024/01/24 07:44:01;;;;;;;0.35;0.15;;;;;;;;;;5026730;28;20052;-88
2024/01/24 07:46:32;;;;;;;1.20;0.30;;;;;;;;;;5029065;28;20060;-88
2024/01/24 07:48:59;;;;;;;1.75;0.50;;;;;;;;;;5024918;28;20046;-88
2024/01/24 07:51:27;;;;;;;4.57;0.30;;;;;;;;;;5021259;28;20049;-88
2024/01/24 07:53:54;;;;;;;2.03;0.60;;;;;;;;;;5021365;28;20510;-87
2024/01/24 07:56:21;;;;;;;1.08;0.30;;;;;;;;;;5023974;28;20068;-87
2024/01/24 07:58:53;;;;;;;0.20;0.20;;;;;;;;;;5024811;28;20049;-87
2024/01/24 08:01:20;;;;;;;0.32;0.30;;;;;;;;;;5024705;28;20053;-88
2024/01/24 08:03:49;;;;;;;2.80;0.57;;;;;;;;;;5024628;28;20107;-88
2024/01/24 08:06:17;;;;;;;0.20;0.10;;;;;;;;;;5021653;28;20111;-87
2024/01/24 08:08:45;;;;;;;2.42;1.35;;;;;;;;;;5021322;28;20515;-88
2024/01/24 08:11:13;;;;;;;0.38;0.30;;;;;;;;;;5023097;28;20062;-88
2024/01/24 08:13:41;;;;;;;0.47;0.28;;;;;;;;;;5025614;28;20052;-89
2024/01/24 08:16:09;;;;;;;1.33;0.82;;;;;;;;;;5023432;28;20053;-87
2024/01/24 08:18:37;;;;;;;0.20;0.15;;;;;;;;;;5020950;28;20065;-88
2024/01/24 08:21:04;;;;;;;0.35;0.20;;;;;;;;;;5021600;28;20491;-88
2024/01/24 08:23:34;;;;;;;1.25;0.35;;;;;;;;;;5024593;28;20045;-87
2024/01/24 08:26:15;;;;;;;1.45;0.20;;;;;;;;;;5024433;28;20068;-89
2024/01/24 08:28:42;;;;;;;1.40;0.57;;;;;;;;;;5024596;28;20053;-89
2024/01/24 08:31:10;;;;;;;0.68;0.30;;;;;;;;;;5023101;28;20049;-88
2024/01/24 08:33:38;;;;;;;0.22;0.22;;;;;;;;;;5021079;28;20437;-88
2024/01/24 08:36:05;;;;;;;0.90;0.60;;;;;;;;;;5021337;28;20064;-89
2024/01/24 08:38:33;;;;;;;0.40;0.32;;;;;;;;;;5024438;28;20115;-89
2024/01/24 08:41:00;;;;;;;0.88;0.08;;;;;;;;;;5024036;28;20134;-87
2024/01/24 08:43:27;;;;;;;0.47;0.47;;;;;;;;;;5020717;28;20054;-88
2024/01/24 08:45:55;;;;;;;0.40;0.40;;;;;;;;;;5020168;28;20060;-89
2024/01/24 08:48:24;;;;;;;0.30;0.30;;;;;;;;;;5024144;28;20080;-88
2024/01/24 08:50:53;;;;;;;0.47;0.20;;;;;;;;;;5024841;28;20045;-89
2024/01/24 08:53:21;;;;;;;2.38;0.52;;;;;;;;;;5031474;28;20049;-89
2024/01/24 08:55:48;;;;;;;0.35;0.22;;;;;;;;;;5025931;28;20068;-88
2024/01/24 08:58:16;;;;;;;0.15;0.15;;;;;;;;;;5023119;28;20050;-86
2024/01/24 09:00:45;;;;;;;0.38;0.20;;;;;;;;;;5025201;28;20085;-86
2024/01/24 09:03:13;;;;;;;0.15;0.10;;;;;;;;;;5022259;28;20108;-87
2024/01/24 09:05:41;;;;;;;0.28;0.20;;;;;;;;;;5021278;28;20498;-88
2024/01/24 09:08:09;;;;;;;0.13;0.10;;;;;;;;;;5021389;28;20149;-88
2024/01/24 09:10:36;;;;;;;0.40;0.10;;;;;;;;;;5023789;28;20111;-88
2024/01/24 09:13:04;;;;;;;2.70;0.13;;;;;;;;;;5023312;28;20069;-88
2024/01/24 09:15:31;;;;;;;0.85;0.10;;;;;;;;;;5024639;28;20056;-88
2024/01/24 09:18:01;;;;;;;0.50;0.40;;;;;;;;;;5027882;28;20112;-88
2024/01/24 09:20:29;;;;;;;3.35;0.40;;;;;;;;;;5024428;28;20041;-87
2024/01/24 09:22:56;;;;;;;2.00;0.20;;;;;;;;;;5031871;28;20061;-86
2024/01/24 09:25:23;;;;;;;0.85;0.25;;;;;;;;;;5024494;28;20088;-87
2024/01/24 09:27:51;;;;;;;0.80;0.40;;;;;;;;;;5024156;28;20205;-88
2024/01/24 09:30:20;;;;;;;0.57;0.25;;;;;;;;;;5026425;28;20076;-89
2024/01/24 09:32:47;;;;;;;1.73;0.40;;;;;;;;;;5029534;28;20125;-88
2024/01/24 09:35:15;;;;;;;2.45;0.52;;;;;;;;;;5033633;28;20152;-87
2024/01/24 09:37:42;;;;;;;1.65;0.30;;;;;;;;;;5027108;28;20057;-87
2024/01/24 09:40:10;;;;;;;3.00;0.60;;;;;;;;;;5026911;28;20107;-86
2024/01/24 09:42:41;;;;;;;3.30;0.25;;;;;;;;;;5030387;28;20148;-87
2024/01/24 09:45:09;;;;;;;1.95;0.40;;;;;;;;;;5025692;28;20045;-87
2024/01/24 09:47:37;;;;;;;1.73;0.85;;;;;;;;;;5026896;28;20111;-85
2024/01/24 09:50:06;;;;;;;1.98;0.50;;;;;;;;;;5027830;28;20056;-87
2024/01/24 09:52:33;;;;;;;2.70;0.50;;;;;;;;;;5029665;28;20396;-86
2024/01/24 09:55:04;;;;;;;2.17;0.82;;;;;;;;;;5031233;28;20086;-87
2024/01/24 09:57:33;;;;;;;4.30;0.85;;;;;;;;;;5032275;28;20072;-87
2024/01/24 10:00:00;;;;;;;5.28;1.15;;;;;;;;;;5031605;28;20049;-90
2024/01/24 10:02:28;;;;;;;6.70;1.13;;;;;;;;;;5031387;28;20049;-87
2024/01/24 10:04:57;;;;;;;8.43;1.65;;;;;;;;;;5022900;28;20461;-87
2024/01/24 10:07:25;;;;;;;6.22;1.42;;;;;;;;;;5026277;28;20572;-87
2024/01/24 10:10:07;;;;;;;6.88;1.92;;;;;;;;;;5026599;28;20045;-87
2024/01/24 10:12:35;;;;;;;5.85;1.73;;;;;;;;;;5030974;28;20091;-87
2024/01/24 10:15:02;;;;;;;12.55;2.15;;;;;;;;;;5037390;28;20049;-86
2024/01/24 10:17:30;;;;;;;7.75;1.77;;;;;;;;;;5026405;28;20050;-87
2024/01/24 10:20:03;;;;;;;11.27;2.00;;;;;;;;;;5034695;28;20137;-88
2024/01/24 10:22:32;;;;;;;11.45;2.65;;;;;;;;;;5030702;28;20054;-88
2024/01/24 10:25:00;;;;;;;17.63;2.95;;;;;;;;;;5024130;28;20085;-88
2024/01/24 10:27:27;;;;;;;7.15;2.08;;;;;;;;;;5022654;28;20108;-87
2024/01/24 10:29:57;;;;;;;10.50;2.03;;;;;;;;;;5022870;28;20050;-87
2024/01/24 10:32:24;;;;;;;12.98;2.40;;;;;;;;;;5025850;28;20045;-88
2024/01/24 10:34:52;;;;;;;12.45;2.15;;;;;;;;;;5026234;28;20055;-90
2024/01/24 10:37:19;;;;;;;9.43;1.90;;;;;;;;;;5026550;28;20053;-88
2024/01/24 10:39:48;;;;;;;14.43;2.25;;;;;;;;;;5027423;28;20049;-88
2024/01/24 10:42:20;;;;;;;11.52;2.20;;;;;;;;;;5025080;28;20049;-88
2024/01/24 10:44:50;;;;;;;11.23;2.03;;;;;;;;;;5029130;28;20046;-88
2024/01/24 10:47:17;;;;;;;9.57;1.77;;;;;;;;;;5026081;28;20050;-87
2024/01/24 10:49:47;;;;;;;14.18;2.50;;;;;;;;;;5027019;28;20564;-88
2024/01/24 10:52:15;;;;;;;12.50;2.10;;;;;;;;;;5024039;28;20410;-88
2024/01/24 10:54:44;;;;;;;8.93;1.95;;;;;;;;;;5022751;28;20410;-89
2024/01/24 10:57:14;;;;;;;8.60;1.73;;;;;;;;;;5024599;28;20478;-87
2024/01/24 10:59:44;;;;;;;8.40;1.77;;;;;;;;;;5028711;28;20509;-88
2024/01/24 11:02:11;;;;;;;5.63;2.22;;;;;;;;;;5023750;28;20053;-87
2024/01/24 11:04:39;;;;;;;10.15;2.50;;;;;;;;;;5025982;28;20091;-89
2024/01/24 11:07:10;;;;;;;5.47;1.50;;;;;;;;;;5024522;28;20490;-88
2024/01/24 11:09:45;;;;;;;6.90;2.08;;;;;;;;;;5022184;28;20446;-89
2024/01/24 11:12:13;;;;;;;5.15;1.60;;;;;;;;;;5030613;28;20502;-88
2024/01/24 11:14:45;;;;;;;5.72;1.60;;;;;;;;;;5022474;28;20077;-90
2024/01/24 11:17:13;;;;;;;6.03;1.58;;;;;;;;;;5023571;28;20049;-88
2024/01/24 11:19:40;;;;;;;6.22;1.95;;;;;;;;;;5025355;28;20490;-89
2024/01/24 11:22:11;;;;;;;5.47;1.67;;;;;;;;;;5024210;28;20462;-88
2024/01/24 11:24:52;;;;;;;5.57;1.63;;;;;;;;;;5022179;28;20049;-88
2024/01/24 11:27:36;;;;;;;4.20;1.40;;;;;;;;;;5032802;28;20045;-86
2024/01/24 11:30:06;;;;;;;7.95;1.90;;;;;;;;;;5023885;28;20108;-87
2024/01/24 11:32:55;;;;;;;5.07;2.10;;;;;;;;;;5024917;28;20053;-88
2024/01/24 11:35:41;;;;;;;7.68;2.03;;;;;;;;;;5025296;28;20049;-87
2024/01/24 11:38:11;;;;;;;5.85;1.73;;;;;;;;;;5024164;28;20045;-87
2024/01/24 11:40:53;;;;;;;10.88;2.45;;;;;;;;;;5020812;28;20074;-86
2024/01/24 11:43:27;;;;;;;9.45;1.88;;;;;;;;;;5032150;28;20103;-86
2024/01/24 11:46:03;;;;;;;10.23;2.30;;;;;;;;;;5024912;28;20046;-86
2024/01/24 11:48:32;;;;;;;8.68;2.00;;;;;;;;;;5021316;28;20064;-86
2024/01/24 11:51:03;;;;;;;9.93;2.30;;;;;;;;;;5020850;28;20066;-87
2024/01/24 11:53:30;;;;;;;12.00;2.20;;;;;;;;;;5021316;28;20058;-87
2024/01/24 11:55:58;;;;;;;12.23;2.25;;;;;;;;;;5022210;28;20556;-88
2024/01/24 11:58:26;;;;;;;10.50;2.28;;;;;;;;;;5024553;28;20049;-86
2024/01/24 12:00:59;;;;;;;13.02;2.53;;;;;;;;;;5017901;28;20061;-86
2024/01/24 12:03:26;;;;;;;8.23;2.10;;;;;;;;;;5024609;28;20092;-88
2024/01/24 12:05:54;;;;;;;7.53;2.28;;;;;;;;;;5025025;28;20140;-87
2024/01/24 12:08:22;;;;;;;11.30;2.22;;;;;;;;;;5029711;28;20061;-86
2024/01/24 12:10:49;;;;;;;12.05;2.08;;;;;;;;;;5021118;28;20450;-85
2024/01/24 12:13:22;;;;;;;10.10;2.25;;;;;;;;;;5023590;28;20062;-87
2024/01/24 12:15:51;;;;;;;7.05;2.00;;;;;;;;;;5023797;28;20056;-87
2024/01/24 12:18:19;;;;;;;9.80;2.28;;;;;;;;;;5024049;28;20117;-85
2024/01/24 12:20:48;;;;;;;8.15;1.88;;;;;;;;;;5024321;28;20081;-87
2024/01/24 12:23:16;;;;;;;9.77;2.10;;;;;;;;;;5024167;28;20129;-85
2024/01/24 12:25:44;;;;;;;10.32;2.58;;;;;;;;;;5024041;28;20132;-88
2024/01/24 12:28:12;;;;;;;10.18;2.10;;;;;;;;;;5024319;28;20061;-86
2024/01/24 12:30:44;;;;;;;8.75;2.08;;;;;;;;;;5023857;28;20045;-85
2024/01/24 12:33:14;;;;;;;12.10;2.00;;;;;;;;;;5022532;28;20057;-86
2024/01/24 12:35:45;;;;;;;11.23;2.38;;;;;;;;;;5020670;28;20152;-86
2024/01/24 12:38:13;;;;;;;12.65;2.25;;;;;;;;;;5023424;28;20050;-87
2024/01/24 12:40:40;;;;;;;10.13;1.90;;;;;;;;;;5026989;28;20053;-89
2024/01/24 12:43:08;;;;;;;11.73;2.22;;;;;;;;;;5027398;28;20057;-87
2024/01/24 12:45:36;;;;;;;9.52;1.73;;;;;;;;;;5027932;28;20050;-90
2024/01/24 12:48:11;;;;;;;8.77;1.88;;;;;;;;;;5021583;28;20073;-87
2024/01/24 12:50:38;;;;;;;9.60;2.05;;;;;;;;;;5027095;28;20494;-88
2024/01/24 12:53:06;;;;;;;8.65;2.83;;;;;;;;;;5020678;28;20153;-88
2024/01/24 12:55:33;;;;;;;10.77;2.15;;;;;;;;;;5024626;28;20128;-87
2024/01/24 12:58:01;;;;;;;18.20;2.85;;;;;;;;;;5024195;28;20054;-89
2024/01/24 13:00:28;;;;;;;10.80;2.38;;;;;;;;;;5024186;28;20049;-87
2024/01/24 13:02:58;;;;;;;12.95;3.33;;;;;;;;;;5024953;28;20045;-88
2024/01/24 13:05:26;;;;;;;10.88;2.80;;;;;;;;;;5020675;28;20414;-87
2024/01/24 13:08:06;;;;;;;17.33;2.85;;;;;;;;;;5021024;28;20127;-89
2024/01/24 13:10:36;;;;;;;13.60;2.90;;;;;;;;;;5024845;28;20060;-87
2024/01/24 13:13:08;;;;;;;11.07;2.75;;;;;;;;;;5023660;28;20056;-87
2024/01/24 13:15:39;;;;;;;13.88;2.60;;;;;;;;;;5025336;28;20081;-89
2024/01/24 13:18:08;;;;;;;17.17;3.15;;;;;;;;;;5032032;28;20056;-90
2024/01/24 13:20:36;;;;;;;15.27;2.75;;;;;;;;;;5032109;28;20057;-88
2024/01/24 13:23:04;;;;;;;14.70;3.08;;;;;;;;;;5023789;28;20049;-91
2024/01/24 13:25:31;;;;;;;11.68;2.72;;;;;;;;;;5025239;28;20049;-89
2024/01/24 13:27:59;;;;;;;15.50;3.47;;;;;;;;;;5023795;28;20046;-89
2024/01/24 13:30:27;;;;;;;17.45;3.53;;;;;;;;;;5020643;28;20049;-88
2024/01/24 13:32:55;;;;;;;13.48;2.15;;;;;;;;;;5020460;28;20058;-89
2024/01/24 13:35:22;;;;;;;12.18;2.83;;;;;;;;;;5024063;28;20057;-88
2024/01/24 13:37:50;;;;;;;12.18;2.72;;;;;;;;;;5024802;28;20387;-88
2024/01/24 13:40:18;;;;;;;12.48;2.35;;;;;;;;;;5021694;28;20054;-88
2024/01/24 13:42:46;;;;;;;12.95;2.47;;;;;;;;;;5020358;28;20137;-91
2024/01/24 13:45:15;;;;;;;13.90;2.40;;;;;;;;;;5022764;28;20050;-90
2024/01/24 13:47:42;;;;;;;11.85;2.90;;;;;;;;;;5026242;28;20085;-86
2024/01/24 13:50:11;;;;;;;18.10;2.97;;;;;;;;;;5028124;28;20049;-86
2024/01/24 13:52:39;;;;;;;13.65;2.63;;;;;;;;;;5019494;28;20069;-89
2024/01/24 13:55:07;;;;;;;14.77;2.58;;;;;;;;;;5022545;28;20096;-87
2024/01/24 13:57:35;;;;;;;14.00;4.75;;;;;;;;;;5025889;28;20053;-87
2024/01/24 14:00:11;;;;;;;13.32;3.03;;;;;;;;;;5023371;28;20056;-88
2024/01/24 14:02:39;;;;;;;13.52;2.65;;;;;;;;;;5025326;28;20049;-87
2024/01/24 14:05:06;;;;;;;13.70;2.53;;;;;;;;;;5025920;28;20049;-87
2024/01/24 14:07:34;;;;;;;17.60;3.10;;;;;;;;;;5023683;28;20483;-85
2024/01/24 14:10:02;;;;;;;16.25;3.25;;;;;;;;;;5023401;28;20458;-89
2024/01/24 14:12:29;;;;;;;12.88;2.78;;;;;;;;;;5026795;28;20071;-88
2024/01/24 14:14:56;;;;;;;17.40;2.80;;;;;;;;;;5026263;28;20045;-88
2024/01/24 14:17:25;;;;;;;17.52;3.10;;;;;;;;;;5023366;28;20081;-88
2024/01/24 14:19:53;;;;;;;16.88;2.83;;;;;;;;;;5024149;28;20050;-90
2024/01/24 14:22:20;;;;;;;15.68;3.33;;;;;;;;;;5032432;28;20068;-88
2024/01/24 14:24:47;;;;;;;17.80;3.08;;;;;;;;;;5023373;28;20054;-88
2024/01/24 14:27:20;;;;;;;22.00;3.80;;;;;;;;;;5025901;28;20058;-85
2024/01/24 14:29:48;;;;;;;15.85;2.90;;;;;;;;;;5028132;28;20060;-89
2024/01/24 14:32:15;;;;;;;17.70;3.00;;;;;;;;;;5032364;28;20049;-89
2024/01/24 14:34:42;;;;;;;14.35;3.47;;;;;;;;;;5022829;28;20100;-89
2024/01/24 14:37:10;;;;;;;17.08;3.08;;;;;;;;;;5023884;28;20046;-90
2024/01/24 14:39:39;;;;;;;17.25;3.65;;;;;;;;;;5026731;28;20057;-88
2024/01/24 14:42:07;;;;;;;14.30;3.92;;;;;;;;;;5025682;28;20208;-88
2024/01/24 14:44:35;;;;;;;15.00;3.20;;;;;;;;;;5023166;28;20410;-89
2024/01/24 14:47:02;;;;;;;13.77;2.92;;;;;;;;;;5030882;28;20103;-88